Time;durP1;ratioP1;P1;durP2;ratioP2;P2;SDS_P1;SDS_P2;PMS_P1;PMS_P2;Temp;Humidity;BMP_temperature;BMP_pressure;BME280_temperature;BME280_humidity;BME280_pressure;Samples;Min_cycle;Max_cycle;Signal;HPM_P1;HPM_P2
2022/08/04 00:01:49;;;;;;;6.70;6.20;;;;;;;;;;5047939;28;20033;-76
2022/08/04 00:04:28;;;;;;;6.65;6.05;;;;;;;;;;5050083;28;20040;-76
2022/08/04 00:07:26;;;;;;;7.38;6.68;;;;;;;;;;5044325;28;20067;-76
2022/08/04 00:09:59;;;;;;;7.57;6.87;;;;;;;;;;4961566;28;20666;-76
2022/08/04 00:12:29;;;;;;;7.78;7.10;;;;;;;;;;4955203;28;20048;-77
2022/08/04 00:14:58;;;;;;;7.10;6.70;;;;;;;;;;4958160;28;20481;-77
2022/08/04 00:17:30;;;;;;;7.63;6.78;;;;;;;;;;4957061;28;20126;-77
2022/08/04 00:20:00;;;;;;;7.32;6.70;;;;;;;;;;4959645;28;20053;-77
2022/08/04 00:22:28;;;;;;;7.50;6.80;;;;;;;;;;4951840;28;20050;-77
2022/08/04 00:24:54;;;;;;;8.48;7.13;;;;;;;;;;4955387;28;20093;-77
2022/08/04 00:27:20;;;;;;;7.30;6.70;;;;;;;;;;4960980;28;20042;-76
2022/08/04 00:29:46;;;;;;;10.80;7.20;;;;;;;;;;4963279;28;20051;-76
2022/08/04 00:32:12;;;;;;;7.32;6.90;;;;;;;;;;4955630;28;20047;-77
2022/08/04 00:34:38;;;;;;;7.85;7.15;;;;;;;;;;4956450;28;20049;-77
2022/08/04 00:37:05;;;;;;;7.40;6.90;;;;;;;;;;4960869;28;20046;-78
2022/08/04 00:39:31;;;;;;;7.70;7.00;;;;;;;;;;4958473;28;20042;-77
2022/08/04 00:42:19;;;;;;;7.82;7.22;;;;;;;;;;4954662;28;20039;-77
2022/08/04 00:45:02;;;;;;;7.70;7.00;;;;;;;;;;4958007;28;20130;-77
2022/08/04 00:47:50;;;;;;;7.07;6.43;;;;;;;;;;5031246;28;20094;-77
2022/08/04 00:50:48;;;;;;;7.60;6.80;;;;;;;;;;5046026;28;20037;-77
2022/08/04 00:53:25;;;;;;;9.40;7.20;;;;;;;;;;5042938;28;20029;-77
2022/08/04 00:55:59;;;;;;;7.40;6.80;;;;;;;;;;5029076;28;20079;-78
2022/08/04 00:58:58;;;;;;;7.53;6.93;;;;;;;;;;5031388;28;20048;-77
2022/08/04 01:01:51;;;;;;;7.65;7.03;;;;;;;;;;5046312;28;20064;-77
2022/08/04 01:04:36;;;;;;;7.65;6.90;;;;;;;;;;5040946;28;20037;-77
2022/08/04 01:07:16;;;;;;;7.70;7.10;;;;;;;;;;5050767;28;20818;-77
2022/08/04 01:10:07;;;;;;;7.55;6.85;;;;;;;;;;5054482;28;20082;-76
2022/08/04 01:12:53;;;;;;;7.45;6.95;;;;;;;;;;5037290;28;20048;-77
2022/08/04 01:15:57;;;;;;;7.70;7.00;;;;;;;;;;5029523;28;20100;-76
2022/08/04 01:18:36;;;;;;;7.25;6.65;;;;;;;;;;5031955;28;20049;-76
2022/08/04 01:21:29;;;;;;;7.90;7.10;;;;;;;;;;5051728;28;20119;-77
2022/08/04 01:24:14;;;;;;;7.45;6.95;;;;;;;;;;5046003;28;20064;-76
2022/08/04 01:27:10;;;;;;;7.93;6.72;;;;;;;;;;5053123;28;20488;-77
2022/08/04 01:29:57;;;;;;;7.50;6.90;;;;;;;;;;5034910;28;20071;-77
2022/08/04 01:32:36;;;;;;;7.88;7.18;;;;;;;;;;5030613;28;20036;-76
2022/08/04 01:35:02;;;;;;;;;;;;;;;;;;5049579;28;20061;-77
2022/08/04 01:37:47;;;;;;;7.40;6.70;;;;;;;;;;5050108;28;19912;-77
2022/08/04 01:40:14;;;;;;;7.50;7.00;;;;;;;;;;5044027;28;20198;-76
2022/08/04 01:42:42;;;;;;;7.60;7.00;;;;;;;;;;5048819;28;20167;-76
2022/08/04 01:45:10;;;;;;;7.22;6.72;;;;;;;;;;5049073;28;20925;-77
2022/08/04 01:47:37;;;;;;;7.28;6.60;;;;;;;;;;5048039;28;20579;-76
2022/08/04 01:50:11;;;;;;;6.95;6.35;;;;;;;;;;5048866;28;20112;-76
2022/08/04 01:52:39;;;;;;;7.32;6.80;;;;;;;;;;5049101;28;20033;-76
2022/08/04 01:55:10;;;;;;;7.47;6.97;;;;;;;;;;5048857;28;20044;-77
2022/08/04 01:57:48;;;;;;;8.15;7.00;;;;;;;;;;5041507;28;20071;-76
2022/08/04 02:00:32;;;;;;;7.82;7.13;;;;;;;;;;5048083;28;20033;-76
2022/08/04 02:02:58;;;;;;;8.10;7.15;;;;;;;;;;5030194;28;20120;-77
2022/08/04 02:05:25;;;;;;;7.88;7.28;;;;;;;;;;5047522;28;20119;-77
2022/08/04 02:07:53;;;;;;;8.18;6.95;;;;;;;;;;5047040;28;20507;-77
2022/08/04 02:10:34;;;;;;;7.57;6.97;;;;;;;;;;5035094;28;20537;-76
2022/08/04 02:13:22;;;;;;;7.70;6.95;;;;;;;;;;5050045;28;20397;-77
2022/08/04 02:16:15;;;;;;;7.73;7.17;;;;;;;;;;5029672;28;20102;-76
2022/08/04 02:19:01;;;;;;;7.78;7.18;;;;;;;;;;5048632;28;20065;-76
2022/08/04 02:21:29;;;;;;;8.05;7.20;;;;;;;;;;5046634;28;20033;-76
2022/08/04 02:24:01;;;;;;;7.88;7.38;;;;;;;;;;5046596;28;20438;-77
2022/08/04 02:26:31;;;;;;;8.30;7.50;;;;;;;;;;5042707;28;20057;-77
2022/08/04 02:29:20;;;;;;;8.23;7.47;;;;;;;;;;5027439;28;20037;-76
2022/08/04 02:31:59;;;;;;;7.85;7.25;;;;;;;;;;5046990;28;20033;-77
2022/08/04 02:34:33;;;;;;;8.48;7.78;;;;;;;;;;5030544;28;20112;-76
2022/08/04 02:37:01;;;;;;;7.70;7.10;;;;;;;;;;5028787;28;20068;-76
2022/08/04 02:39:32;;;;;;;8.03;7.43;;;;;;;;;;5047118;28;20040;-77
2022/08/04 02:42:00;;;;;;;8.10;7.38;;;;;;;;;;5030023;28;20037;-76
2022/08/04 02:44:29;;;;;;;8.23;7.63;;;;;;;;;;5029780;28;20052;-76
2022/08/04 02:46:55;;;;;;;8.20;7.50;;;;;;;;;;5046180;28;20024;-77
2022/08/04 02:49:22;;;;;;;7.90;7.30;;;;;;;;;;5045154;28;20401;-77
2022/08/04 02:51:54;;;;;;;8.13;7.53;;;;;;;;;;5029301;28;20145;-77
2022/08/04 02:54:26;;;;;;;8.10;7.45;;;;;;;;;;5049646;28;20044;-77
2022/08/04 02:56:54;;;;;;;7.72;7.22;;;;;;;;;;5043658;28;20662;-76
2022/08/04 02:59:28;;;;;;;8.45;7.72;;;;;;;;;;5045138;28;20033;-77
2022/08/04 03:01:56;;;;;;;8.10;7.50;;;;;;;;;;5044070;28;20033;-77
2022/08/04 03:04:49;;;;;;;8.55;7.88;;;;;;;;;;5045653;28;20040;-77
2022/08/04 03:08:05;;;;;;;8.45;7.68;;;;;;;;;;5042908;28;20037;-76
2022/08/04 03:10:52;;;;;;;8.43;7.75;;;;;;;;;;5047948;28;20552;-77
2022/08/04 03:13:21;;;;;;;8.35;7.70;;;;;;;;;;5028415;28;20110;-77
2022/08/04 03:16:25;;;;;;;8.77;8.05;;;;;;;;;;5045819;28;20047;-77
2022/08/04 03:19:19;;;;;;;8.48;7.80;;;;;;;;;;4984378;28;20050;-77
2022/08/04 03:22:22;;;;;;;8.48;7.85;;;;;;;;;;5032406;28;20452;-77
2022/08/04 03:25:11;;;;;;;8.27;7.60;;;;;;;;;;5045757;28;20032;-77
2022/08/04 03:27:59;;;;;;;8.60;7.80;;;;;;;;;;5045727;28;20071;-77
2022/08/04 03:30:36;;;;;;;8.70;8.00;;;;;;;;;;5044843;28;20068;-77
2022/08/04 03:33:04;;;;;;;8.80;8.00;;;;;;;;;;5044733;28;20056;-77
2022/08/04 03:35:45;;;;;;;8.38;7.78;;;;;;;;;;5048821;28;20036;-76
2022/08/04 03:38:29;;;;;;;11.85;8.43;;;;;;;;;;5029071;28;20078;-77
2022/08/04 03:40:58;;;;;;;8.50;7.70;;;;;;;;;;5047036;28;20048;-77
2022/08/04 03:43:26;;;;;;;8.23;7.45;;;;;;;;;;5042876;28;20040;-77
2022/08/04 03:46:27;;;;;;;8.80;7.90;;;;;;;;;;5046603;28;20045;-76
2022/08/04 03:49:25;;;;;;;7.80;7.28;;;;;;;;;;4987049;28;20480;-77
2022/08/04 03:55:02;;;;;;;8.75;8.05;;;;;;;;;;4986302;28;20312;-77
2022/08/04 03:57:55;;;;;;;8.98;8.07;;;;;;;;;;4986960;28;20038;-77
2022/08/04 04:00:50;;;;;;;8.65;7.80;;;;;;;;;;4984883;28;20050;-77
2022/08/04 04:03:33;;;;;;;8.68;7.85;;;;;;;;;;4964095;28;20632;-77
2022/08/04 04:06:37;;;;;;;8.48;7.57;;;;;;;;;;4986869;28;20093;-76
2022/08/04 04:09:40;;;;;;;8.70;8.10;;;;;;;;;;4983926;28;20182;-76
2022/08/04 04:12:20;;;;;;;10.15;7.85;;;;;;;;;;4978236;28;20054;-77
2022/08/04 04:14:58;;;;;;;8.30;7.60;;;;;;;;;;4984768;28;20065;-77
2022/08/04 04:17:44;;;;;;;8.98;7.60;;;;;;;;;;4963408;28;20069;-77
2022/08/04 04:20:37;;;;;;;9.05;8.05;;;;;;;;;;4982428;28;20026;-75
2022/08/04 04:23:21;;;;;;;8.55;7.82;;;;;;;;;;4972857;28;20506;-76
2022/08/04 04:26:10;;;;;;;9.00;8.10;;;;;;;;;;5049486;28;20055;-76
2022/08/04 04:29:01;;;;;;;8.80;8.05;;;;;;;;;;5048229;28;20041;-77
2022/08/04 04:31:53;;;;;;;10.57;9.02;;;;;;;;;;5032598;28;20033;-76
2022/08/04 04:34:42;;;;;;;8.88;8.05;;;;;;;;;;4952013;28;20515;-76
2022/08/04 04:37:33;;;;;;;9.10;8.30;;;;;;;;;;4931662;28;20943;-78
2022/08/04 04:40:20;;;;;;;8.93;7.90;;;;;;;;;;4953013;28;20035;-77
2022/08/04 04:43:00;;;;;;;9.45;7.90;;;;;;;;;;4951858;28;20057;-78
2022/08/04 04:45:45;;;;;;;8.40;7.78;;;;;;;;;;4956678;28;20035;-76
2022/08/04 04:48:23;;;;;;;9.00;8.20;;;;;;;;;;4953521;28;20129;-76
2022/08/04 04:50:57;;;;;;;8.55;7.65;;;;;;;;;;4955912;28;20043;-79
2022/08/04 04:53:28;;;;;;;8.43;7.70;;;;;;;;;;4953336;28;20465;-79
2022/08/04 04:56:21;;;;;;;8.20;7.57;;;;;;;;;;4947992;28;20043;-79
2022/08/04 04:58:51;;;;;;;9.18;7.90;;;;;;;;;;4934816;28;20059;-79
2022/08/04 05:01:38;;;;;;;8.85;8.25;;;;;;;;;;4954782;28;20033;-78
2022/08/04 05:04:18;;;;;;;8.82;8.15;;;;;;;;;;4948869;28;20051;-78
2022/08/04 05:06:59;;;;;;;8.75;7.95;;;;;;;;;;4945947;28;20123;-79
2022/08/04 05:09:51;;;;;;;7.95;7.35;;;;;;;;;;4953337;28;20128;-80
2022/08/04 05:12:19;;;;;;;8.73;8.10;;;;;;;;;;5044867;28;20045;-78
2022/08/04 05:14:50;;;;;;;9.85;8.65;;;;;;;;;;5034023;28;20610;-79
2022/08/04 05:17:22;;;;;;;9.30;8.40;;;;;;;;;;5053182;28;20037;-77
2022/08/04 05:19:59;;;;;;;8.73;8.13;;;;;;;;;;5050011;28;20680;-78
2022/08/04 05:22:46;;;;;;;8.75;8.15;;;;;;;;;;5034889;28;20056;-79
2022/08/04 05:25:33;;;;;;;9.82;8.13;;;;;;;;;;5049203;28;20041;-78
2022/08/04 05:27:59;;;;;;;8.50;7.90;;;;;;;;;;5047085;28;20635;-77
2022/08/04 05:30:27;;;;;;;8.52;7.97;;;;;;;;;;5049610;28;20033;-77
2022/08/04 05:33:03;;;;;;;10.60;8.40;;;;;;;;;;5047118;28;20543;-78
2022/08/04 05:35:34;;;;;;;8.90;8.10;;;;;;;;;;5046092;28;20025;-78
2022/08/04 05:38:03;;;;;;;8.73;8.02;;;;;;;;;;5048806;28;20040;-77
2022/08/04 05:40:29;;;;;;;8.50;7.80;;;;;;;;;;5048173;28;20041;-77
2022/08/04 05:42:56;;;;;;;8.50;7.90;;;;;;;;;;5051189;28;20090;-78
2022/08/04 05:45:22;;;;;;;9.10;8.20;;;;;;;;;;5050724;28;20056;-77
2022/08/04 05:47:50;;;;;;;8.70;8.00;;;;;;;;;;5046077;28;20041;-77
2022/08/04 05:50:17;;;;;;;8.60;7.83;;;;;;;;;;5041785;28;20116;-76
2022/08/04 05:52:43;;;;;;;10.65;7.68;;;;;;;;;;5050457;28;20283;-76
2022/08/04 05:55:11;;;;;;;10.25;7.57;;;;;;;;;;5050771;28;20480;-77
2022/08/04 05:57:40;;;;;;;8.60;7.80;;;;;;;;;;5050573;28;20041;-77
2022/08/04 06:00:07;;;;;;;9.02;8.13;;;;;;;;;;5047330;28;20556;-77
2022/08/04 06:02:35;;;;;;;8.55;7.85;;;;;;;;;;5050521;28;20069;-77
2022/08/04 06:05:04;;;;;;;9.43;8.43;;;;;;;;;;5054873;28;20095;-77
2022/08/04 06:07:30;;;;;;;8.95;8.15;;;;;;;;;;5021289;28;20060;-77
2022/08/04 06:09:56;;;;;;;8.52;7.68;;;;;;;;;;5049806;28;20465;-77
2022/08/04 06:12:29;;;;;;;8.90;8.05;;;;;;;;;;5050337;28;20087;-77
2022/08/04 06:14:58;;;;;;;8.27;7.57;;;;;;;;;;5050061;28;20033;-78
2022/08/04 06:17:34;;;;;;;9.05;7.80;;;;;;;;;;5049992;28;20440;-77
2022/08/04 06:20:02;;;;;;;8.45;7.65;;;;;;;;;;5050087;28;20067;-77
2022/08/04 06:22:29;;;;;;;9.70;8.18;;;;;;;;;;5049858;28;20377;-77
2022/08/04 06:24:57;;;;;;;8.27;7.57;;;;;;;;;;5050126;28;20058;-77
2022/08/04 06:27:23;;;;;;;7.88;7.18;;;;;;;;;;5043747;28;20500;-78
2022/08/04 06:29:50;;;;;;;8.65;7.32;;;;;;;;;;5049957;28;20064;-77
2022/08/04 06:35:04;;;;;;;8.40;7.60;;;;;;;;;;5049861;28;20033;-77
2022/08/04 06:37:30;;;;;;;;;;;;;;;;;;5050496;28;20032;-77
2022/08/04 06:39:57;;;;;;;11.57;7.28;;;;;;;;;;5049638;28;19913;-77
2022/08/04 06:42:25;;;;;;;8.65;7.25;;;;;;;;;;5031972;28;20083;-77
2022/08/04 06:44:55;;;;;;;7.78;7.03;;;;;;;;;;5032079;28;20055;-77
2022/08/04 06:47:21;;;;;;;7.68;7.03;;;;;;;;;;5048973;28;20033;-77
2022/08/04 06:49:49;;;;;;;9.52;7.03;;;;;;;;;;5024886;28;20091;-77
2022/08/04 06:52:17;;;;;;;7.95;7.22;;;;;;;;;;5049573;28;20051;-78
2022/08/04 06:54:47;;;;;;;7.50;6.88;;;;;;;;;;5049572;28;20037;-77
2022/08/04 06:57:15;;;;;;;7.43;6.78;;;;;;;;;;5049915;28;20101;-77
2022/08/04 06:59:54;;;;;;;7.57;7.00;;;;;;;;;;5049750;28;20086;-77
2022/08/04 07:02:24;;;;;;;7.20;6.60;;;;;;;;;;5049291;28;20048;-77
2022/08/04 07:04:50;;;;;;;7.57;6.88;;;;;;;;;;5049470;28;20045;-77
2022/08/04 07:07:16;;;;;;;7.47;6.88;;;;;;;;;;5049270;28;20052;-77
2022/08/04 07:09:42;;;;;;;7.38;6.68;;;;;;;;;;5049271;28;20067;-77
2022/08/04 07:12:09;;;;;;;7.72;6.85;;;;;;;;;;5031327;28;20643;-77
2022/08/04 07:14:35;;;;;;;7.63;6.70;;;;;;;;;;5031371;28;20592;-77
2022/08/04 07:17:05;;;;;;;7.25;6.40;;;;;;;;;;5049206;28;20041;-77
2022/08/04 07:19:32;;;;;;;7.90;7.15;;;;;;;;;;5049482;28;20496;-78
2022/08/04 07:21:59;;;;;;;9.45;6.70;;;;;;;;;;5049199;28;20040;-78
2022/08/04 07:24:32;;;;;;;7.50;6.70;;;;;;;;;;5049268;28;20037;-77
2022/08/04 07:26:58;;;;;;;8.27;6.30;;;;;;;;;;5049716;28;20032;-77
2022/08/04 07:29:24;;;;;;;7.47;6.70;;;;;;;;;;5049955;28;20039;-77
2022/08/04 07:31:50;;;;;;;7.18;6.50;;;;;;;;;;5045761;28;20550;-77
2022/08/04 07:34:18;;;;;;;7.20;6.35;;;;;;;;;;5049276;28;20480;-77
2022/08/04 07:36:44;;;;;;;8.67;7.03;;;;;;;;;;5031512;28;20044;-76
2022/08/04 07:39:09;;;;;;;6.80;6.30;;;;;;;;;;5049938;28;20033;-77
2022/08/04 07:41:36;;;;;;;7.20;6.25;;;;;;;;;;5051982;28;20047;-76
2022/08/04 07:44:03;;;;;;;7.07;6.38;;;;;;;;;;5053420;28;20140;-77
2022/08/04 07:46:28;;;;;;;7.72;6.68;;;;;;;;;;5051554;28;20040;-77
2022/08/04 07:48:54;;;;;;;7.15;6.45;;;;;;;;;;5031308;28;20044;-78
2022/08/04 07:51:21;;;;;;;7.15;6.50;;;;;;;;;;5048422;28;20040;-77
2022/08/04 07:53:47;;;;;;;11.48;6.40;;;;;;;;;;5046810;28;20041;-77
2022/08/04 07:56:15;;;;;;;9.55;6.40;;;;;;;;;;5048158;28;20090;-76
2022/08/04 07:58:41;;;;;;;6.70;6.20;;;;;;;;;;5046577;28;20484;-77
2022/08/04 08:01:08;;;;;;;7.53;6.18;;;;;;;;;;5048614;28;20029;-76
2022/08/04 08:03:35;;;;;;;6.50;5.67;;;;;;;;;;5046300;28;20067;-77
2022/08/04 08:06:03;;;;;;;6.80;6.10;;;;;;;;;;5045242;28;20283;-76
2022/08/04 08:08:28;;;;;;;7.07;5.80;;;;;;;;;;5053724;28;20162;-77
2022/08/04 08:10:54;;;;;;;7.50;5.90;;;;;;;;;;5042440;28;20153;-76
2022/08/04 08:13:20;;;;;;;6.63;5.70;;;;;;;;;;5047331;28;20025;-77
2022/08/04 08:15:47;;;;;;;6.78;5.68;;;;;;;;;;5029674;28;20099;-77
2022/08/04 08:18:12;;;;;;;9.02;5.85;;;;;;;;;;5029766;28;20547;-77
2022/08/04 08:20:38;;;;;;;6.35;5.75;;;;;;;;;;5044154;28;20028;-77
2022/08/04 08:23:04;;;;;;;8.00;5.90;;;;;;;;;;5048015;28;20742;-77
2022/08/04 08:25:31;;;;;;;5.95;5.28;;;;;;;;;;5049431;28;20033;-77
2022/08/04 08:27:58;;;;;;;5.47;5.07;;;;;;;;;;5051336;28;20171;-77
2022/08/04 08:30:24;;;;;;;6.93;5.50;;;;;;;;;;5045098;28;20536;-77
2022/08/04 08:32:50;;;;;;;5.72;5.13;;;;;;;;;;5046900;28;20055;-77
2022/08/04 08:35:17;;;;;;;5.95;5.10;;;;;;;;;;5047113;28;20036;-77
2022/08/04 08:37:57;;;;;;;5.72;5.10;;;;;;;;;;5042262;28;20029;-76
2022/08/04 08:40:32;;;;;;;6.35;5.15;;;;;;;;;;5044961;28;20114;-77
2022/08/04 08:43:12;;;;;;;6.20;5.70;;;;;;;;;;5048626;28;20381;-76
2022/08/04 08:45:58;;;;;;;5.68;4.97;;;;;;;;;;5044058;28;20043;-77
2022/08/04 08:48:47;;;;;;;5.90;5.40;;;;;;;;;;5046989;28;20122;-77
2022/08/04 08:51:45;;;;;;;8.23;5.60;;;;;;;;;;4991006;28;20381;-77
2022/08/04 08:54:50;;;;;;;6.63;5.57;;;;;;;;;;5031881;28;20156;-76
2022/08/04 08:57:44;;;;;;;6.10;5.60;;;;;;;;;;5043099;28;20037;-77
2022/08/04 09:00:43;;;;;;;6.03;5.35;;;;;;;;;;5047493;28;20405;-76
2022/08/04 09:03:31;;;;;;;6.68;5.40;;;;;;;;;;5044054;28;20025;-76
2022/08/04 09:06:19;;;;;;;5.82;5.25;;;;;;;;;;5041988;28;20043;-77
2022/08/04 09:08:48;;;;;;;6.30;5.05;;;;;;;;;;5025532;28;20443;-76
2022/08/04 09:11:17;;;;;;;7.90;5.30;;;;;;;;;;5047452;28;20044;-76
2022/08/04 09:13:56;;;;;;;5.38;4.95;;;;;;;;;;5045065;28;20047;-76
2022/08/04 09:16:48;;;;;;;5.53;5.05;;;;;;;;;;5041155;28;20671;-76
2022/08/04 09:19:20;;;;;;;6.00;5.40;;;;;;;;;;5048470;28;20029;-76
2022/08/04 09:22:01;;;;;;;6.20;5.20;;;;;;;;;;5045723;28;20037;-76
2022/08/04 09:24:32;;;;;;;6.13;5.53;;;;;;;;;;5040755;28;20075;-76
2022/08/04 09:27:02;;;;;;;5.45;4.95;;;;;;;;;;5046187;28;20037;-76
2022/08/04 09:30:00;;;;;;;5.90;5.20;;;;;;;;;;5048134;28;20044;-76
2022/08/04 09:32:35;;;;;;;6.10;4.93;;;;;;;;;;5046993;28;20033;-76
2022/08/04 09:35:39;;;;;;;5.70;5.20;;;;;;;;;;5048780;28;20033;-76
2022/08/04 09:38:10;;;;;;;5.30;4.97;;;;;;;;;;5026396;28;20504;-76
2022/08/04 09:40:45;;;;;;;5.15;4.70;;;;;;;;;;5052211;28;20037;-76
2022/08/04 09:44:08;;;;;;;7.95;5.40;;;;;;;;;;5044915;28;20099;-76
2022/08/04 09:46:52;;;;;;;5.07;4.63;;;;;;;;;;4986378;28;20050;-76
2022/08/04 09:49:35;;;;;;;4.97;4.50;;;;;;;;;;4982930;28;20046;-76
2022/08/04 09:52:03;;;;;;;7.18;5.07;;;;;;;;;;4986559;28;20058;-76
2022/08/04 09:54:31;;;;;;;6.28;5.10;;;;;;;;;;4987113;28;20041;-76
2022/08/04 09:57:13;;;;;;;;;;;;;;;;;;4986145;28;20049;-76
2022/08/04 10:00:06;;;;;;;5.65;5.03;;;;;;;;;;4983197;28;19913;-76
2022/08/04 10:02:46;;;;;;;5.90;5.32;;;;;;;;;;4986966;28;20200;-77
2022/08/04 10:05:20;;;;;;;5.20;4.80;;;;;;;;;;4984990;28;20046;-76
2022/08/04 10:08:37;;;;;;;5.47;4.97;;;;;;;;;;4986896;28;20048;-76
2022/08/04 10:11:06;;;;;;;;;;;;;;;;;;4986179;28;20050;-76
2022/08/04 10:13:41;;;;;;;5.35;4.95;;;;;;;;;;4984843;28;19972;-76
2022/08/04 10:16:18;;;;;;;5.90;5.30;;;;;;;;;;4992559;28;20049;-76
2022/08/04 10:19:18;;;;;;;6.78;5.22;;;;;;;;;;5047563;28;20090;-76
2022/08/04 10:22:10;;;;;;;7.88;5.10;;;;;;;;;;5020609;28;20141;-76
2022/08/04 10:25:00;;;;;;;5.57;5.18;;;;;;;;;;5045271;28;20039;-76
2022/08/04 10:27:39;;;;;;;5.70;5.00;;;;;;;;;;5049639;28;20500;-76
2022/08/04 10:30:12;;;;;;;5.40;4.90;;;;;;;;;;5041876;28;20040;-76
2022/08/04 10:32:52;;;;;;;7.43;5.05;;;;;;;;;;5043512;28;20024;-76
2022/08/04 10:35:23;;;;;;;5.18;4.70;;;;;;;;;;5051231;28;20139;-76
2022/08/04 10:38:12;;;;;;;5.50;5.00;;;;;;;;;;5048090;28;20041;-76
2022/08/04 10:40:43;;;;;;;7.20;4.70;;;;;;;;;;5046855;28;20499;-76
2022/08/04 10:43:34;;;;;;;5.28;4.88;;;;;;;;;;5042107;28;20033;-77
2022/08/04 10:46:05;;;;;;;5.47;5.03;;;;;;;;;;5047044;28;20029;-76
2022/08/04 10:48:43;;;;;;;4.75;4.40;;;;;;;;;;5046668;28;20481;-76
2022/08/04 10:51:26;;;;;;;5.30;4.95;;;;;;;;;;5044414;28;20028;-76
2022/08/04 10:53:58;;;;;;;6.55;4.38;;;;;;;;;;5048580;28;20037;-76
2022/08/04 10:56:45;;;;;;;4.78;4.38;;;;;;;;;;5048394;28;20220;-76
2022/08/04 10:59:38;;;;;;;4.35;4.05;;;;;;;;;;5046274;28;20055;-77
2022/08/04 11:02:37;;;;;;;4.80;4.40;;;;;;;;;;5029267;28;20175;-76
2022/08/04 11:05:28;;;;;;;5.38;4.85;;;;;;;;;;5043592;28;20377;-76
2022/08/04 11:08:00;;;;;;;4.97;4.68;;;;;;;;;;5038555;28;20049;-76
2022/08/04 11:10:31;;;;;;;5.22;4.82;;;;;;;;;;5016581;28;20037;-76
2022/08/04 11:13:03;;;;;;;5.78;4.13;;;;;;;;;;5046008;28;20877;-77
2022/08/04 11:15:35;;;;;;;4.80;4.50;;;;;;;;;;5043481;28;20126;-76
2022/08/04 11:18:06;;;;;;;5.03;4.70;;;;;;;;;;5030712;28;20075;-76
2022/08/04 11:20:45;;;;;;;5.22;4.72;;;;;;;;;;5047520;28;20608;-76
2022/08/04 11:23:13;;;;;;;4.50;4.22;;;;;;;;;;5045015;28;20071;-76
2022/08/04 11:25:48;;;;;;;4.75;4.45;;;;;;;;;;5043504;28;20385;-76
2022/08/04 11:28:40;;;;;;;4.45;4.00;;;;;;;;;;5043555;28;20043;-76
2022/08/04 11:31:18;;;;;;;5.10;4.70;;;;;;;;;;5049501;28;20037;-76
2022/08/04 11:34:00;;;;;;;4.88;4.47;;;;;;;;;;5040285;28;20032;-75
2022/08/04 11:36:45;;;;;;;5.20;4.88;;;;;;;;;;5046578;28;20563;-76
2022/08/04 11:39:36;;;;;;;5.10;4.80;;;;;;;;;;5047932;28;20041;-76
2022/08/04 11:42:14;;;;;;;6.97;4.65;;;;;;;;;;5043270;28;20132;-76
2022/08/04 11:44:47;;;;;;;5.15;4.65;;;;;;;;;;5026555;28;20033;-76
2022/08/04 11:47:29;;;;;;;5.20;4.75;;;;;;;;;;5045898;28;20048;-76
2022/08/04 11:50:04;;;;;;;5.10;4.63;;;;;;;;;;5028498;28;20123;-76
2022/08/04 11:52:32;;;;;;;5.07;4.78;;;;;;;;;;5042701;28;20366;-76
2022/08/04 11:55:04;;;;;;;5.05;4.68;;;;;;;;;;5044969;28;20087;-76
2022/08/04 11:57:30;;;;;;;5.20;4.90;;;;;;;;;;5043053;28;20041;-76
2022/08/04 11:59:57;;;;;;;5.50;5.20;;;;;;;;;;5027411;28;20045;-76
2022/08/04 12:02:23;;;;;;;5.20;4.80;;;;;;;;;;5038891;28;20094;-76
2022/08/04 12:05:00;;;;;;;5.35;5.05;;;;;;;;;;5041095;28;20049;-76
2022/08/04 12:07:59;;;;;;;5.85;5.40;;;;;;;;;;5022352;28;20041;-76
2022/08/04 12:10:49;;;;;;;5.90;5.20;;;;;;;;;;5041600;28;20032;-76
2022/08/04 12:13:30;;;;;;;5.60;5.20;;;;;;;;;;5042676;28;21340;-76
2022/08/04 12:16:19;;;;;;;5.43;5.13;;;;;;;;;;5041740;28;20099;-76
2022/08/04 12:18:52;;;;;;;5.70;5.38;;;;;;;;;;5038081;28;20041;-76
2022/08/04 12:21:44;;;;;;;5.78;5.38;;;;;;;;;;5043367;28;20032;-76
2022/08/04 12:24:17;;;;;;;10.48;5.95;;;;;;;;;;5034030;28;20044;-76
2022/08/04 12:26:50;;;;;;;5.70;5.38;;;;;;;;;;5027580;28;20047;-76
2022/08/04 12:29:18;;;;;;;5.90;5.50;;;;;;;;;;5039834;28;20079;-76
2022/08/04 12:31:52;;;;;;;6.65;5.95;;;;;;;;;;5044361;28;20032;-76
2022/08/04 12:34:29;;;;;;;6.50;6.00;;;;;;;;;;5047829;28;20062;-76
2022/08/04 12:37:11;;;;;;;6.35;5.80;;;;;;;;;;5042847;28;20029;-76
2022/08/04 12:39:38;;;;;;;8.18;6.20;;;;;;;;;;5041220;28;20476;-76
2022/08/04 12:42:13;;;;;;;6.10;5.70;;;;;;;;;;5041759;28;20068;-77
2022/08/04 12:44:41;;;;;;;6.07;5.68;;;;;;;;;;5027378;28;20323;-76
2022/08/04 12:47:10;;;;;;;5.90;5.50;;;;;;;;;;5037138;28;20037;-76
2022/08/04 12:49:40;;;;;;;5.88;5.53;;;;;;;;;;5044975;28;20041;-76
2022/08/04 12:52:07;;;;;;;6.75;5.95;;;;;;;;;;5038817;28;20021;-75
2022/08/04 12:54:37;;;;;;;6.07;5.63;;;;;;;;;;5045168;28;20052;-75
2022/08/04 12:57:05;;;;;;;6.50;6.10;;;;;;;;;;5045763;28;20025;-76
2022/08/04 12:59:42;;;;;;;6.10;5.70;;;;;;;;;;5044009;28;20028;-77
2022/08/04 13:02:22;;;;;;;6.30;5.90;;;;;;;;;;5053071;28;20063;-76
2022/08/04 13:04:49;;;;;;;6.72;6.15;;;;;;;;;;5039397;28;20496;-76
2022/08/04 13:07:19;;;;;;;6.72;6.22;;;;;;;;;;5049976;28;20051;-76
2022/08/04 13:09:45;;;;;;;6.65;6.15;;;;;;;;;;5026251;28;20045;-76
2022/08/04 13:12:19;;;;;;;6.65;6.05;;;;;;;;;;5048690;28;20033;-76
2022/08/04 13:14:51;;;;;;;6.20;5.80;;;;;;;;;;5038106;28;20048;-76
2022/08/04 13:17:17;;;;;;;6.55;6.15;;;;;;;;;;5048771;28;20136;-76
2022/08/04 13:19:47;;;;;;;5.93;5.50;;;;;;;;;;5044158;28;20053;-76
2022/08/04 13:22:22;;;;;;;6.18;5.78;;;;;;;;;;5043678;28;20043;-76
2022/08/04 13:24:50;;;;;;;6.00;5.60;;;;;;;;;;5047586;28;20574;-76
2022/08/04 13:27:17;;;;;;;6.10;5.70;;;;;;;;;;5045557;28;20067;-76
2022/08/04 13:29:44;;;;;;;6.03;5.63;;;;;;;;;;5045660;28;20087;-76
2022/08/04 13:32:16;;;;;;;6.47;5.97;;;;;;;;;;5045351;28;20115;-76
2022/08/04 13:34:42;;;;;;;5.90;5.40;;;;;;;;;;5046475;28;20052;-75
2022/08/04 13:37:10;;;;;;;6.28;5.78;;;;;;;;;;5045276;28;20044;-75
2022/08/04 13:39:38;;;;;;;5.90;5.50;;;;;;;;;;5043249;28;20041;-76
2022/08/04 13:42:08;;;;;;;6.00;5.60;;;;;;;;;;5043357;28;20048;-75
2022/08/04 13:44:35;;;;;;;5.85;5.55;;;;;;;;;;5046326;28;20083;-75
2022/08/04 13:47:07;;;;;;;5.40;5.10;;;;;;;;;;5026266;28;20120;-76
2022/08/04 13:49:32;;;;;;;6.53;5.90;;;;;;;;;;5045688;28;20041;-76
2022/08/04 13:52:00;;;;;;;5.97;5.47;;;;;;;;;;5039962;28;20071;-75
2022/08/04 13:54:35;;;;;;;5.70;5.28;;;;;;;;;;5049278;28;20064;-76
2022/08/04 13:57:09;;;;;;;5.93;5.53;;;;;;;;;;5025030;28;20120;-76
2022/08/04 13:59:36;;;;;;;5.68;5.30;;;;;;;;;;5045142;28;20041;-76
2022/08/04 14:02:08;;;;;;;7.25;5.75;;;;;;;;;;5046565;28;20045;-76
2022/08/04 14:04:48;;;;;;;6.00;5.50;;;;;;;;;;5045192;28;20037;-76
2022/08/04 14:07:16;;;;;;;5.88;5.40;;;;;;;;;;5047056;28;20055;-75
2022/08/04 14:09:42;;;;;;;;;;;;;;;;;;5043440;28;20554;-76
2022/08/04 14:12:13;;;;;;;5.78;5.38;;;;;;;;;;5047884;28;20007;-75
2022/08/04 14:14:50;;;;;;;5.88;5.50;;;;;;;;;;5037425;28;20034;-76
2022/08/04 14:17:22;;;;;;;5.82;5.40;;;;;;;;;;5046869;28;20488;-76
2022/08/04 14:19:56;;;;;;;5.88;5.43;;;;;;;;;;5043656;28;20462;-76
2022/08/04 14:22:24;;;;;;;7.05;6.00;;;;;;;;;;5044397;28;20033;-76
2022/08/04 14:25:08;;;;;;;6.35;5.75;;;;;;;;;;5040555;28;20033;-76
2022/08/04 14:27:51;;;;;;;5.93;5.53;;;;;;;;;;5028247;28;20045;-76
2022/08/04 14:30:23;;;;;;;5.97;5.57;;;;;;;;;;5046215;28;20043;-76
2022/08/04 14:33:06;;;;;;;6.00;5.60;;;;;;;;;;5045170;28;20045;-76
2022/08/04 14:35:33;;;;;;;6.45;5.90;;;;;;;;;;5030301;28;20025;-76
2022/08/04 14:38:03;;;;;;;5.80;5.40;;;;;;;;;;5047845;28;20064;-75
2022/08/04 14:40:32;;;;;;;6.70;6.00;;;;;;;;;;5045182;28;20064;-76
2022/08/04 14:42:58;;;;;;;6.00;5.60;;;;;;;;;;5043841;28;20037;-75
2022/08/04 14:46:02;;;;;;;6.03;5.55;;;;;;;;;;5045735;28;20028;-75
2022/08/04 14:48:27;;;;;;;6.65;6.10;;;;;;;;;;5044044;28;20043;-75
2022/08/04 14:50:53;;;;;;;5.95;5.55;;;;;;;;;;5042450;28;20034;-76
2022/08/04 14:53:30;;;;;;;6.15;5.53;;;;;;;;;;5047533;28;20029;-75
2022/08/04 14:55:58;;;;;;;9.02;5.70;;;;;;;;;;5042756;28;20049;-76
2022/08/04 14:58:24;;;;;;;5.93;5.53;;;;;;;;;;5042460;28;20793;-76
2022/08/04 15:00:53;;;;;;;6.03;5.63;;;;;;;;;;5042992;28;20033;-75
2022/08/04 15:03:23;;;;;;;7.65;5.55;;;;;;;;;;5046147;28;20037;-76
2022/08/04 15:05:50;;;;;;;6.80;6.30;;;;;;;;;;5044450;28;20041;-76
2022/08/04 15:08:16;;;;;;;6.32;5.93;;;;;;;;;;5028488;28;20032;-75
2022/08/04 15:10:43;;;;;;;6.35;5.85;;;;;;;;;;5040520;28;20101;-75
2022/08/04 15:13:11;;;;;;;6.85;6.18;;;;;;;;;;5049010;28;20069;-75
2022/08/04 15:15:37;;;;;;;;;;;;;;;;;;5042136;28;20044;-75
2022/08/04 15:18:06;;;;;;;6.60;6.13;;;;;;;;;;5045548;28;19986;-76
2022/08/04 15:20:32;;;;;;;6.50;6.00;;;;;;;;;;5042666;28;20025;-74
2022/08/04 15:22:57;;;;;;;6.55;6.05;;;;;;;;;;5042492;28;20386;-74
2022/08/04 15:25:24;;;;;;;6.57;5.97;;;;;;;;;;5021970;28;20033;-75
2022/08/04 15:27:51;;;;;;;7.25;6.57;;;;;;;;;;5026531;28;20041;-75
2022/08/04 15:30:18;;;;;;;6.95;6.35;;;;;;;;;;5046010;28;20651;-74
2022/08/04 15:32:50;;;;;;;8.52;6.55;;;;;;;;;;5042121;28;20095;-74
2022/08/04 15:35:22;;;;;;;6.50;6.00;;;;;;;;;;5045457;28;20044;-75
2022/08/04 15:37:57;;;;;;;7.25;6.50;;;;;;;;;;5039593;28;20075;-74
2022/08/04 15:40:49;;;;;;;6.70;6.20;;;;;;;;;;5025945;28;20044;-74
2022/08/04 15:43:36;;;;;;;7.15;6.55;;;;;;;;;;5044937;28;20408;-74